Time;durP1;ratioP1;P1;durP2;ratioP2;P2;SDS_P1;SDS_P2;PMS_P1;PMS_P2;Temp;Humidity;BMP_temperature;BMP_pressure;BME280_temperature;BME280_humidity;BME280_pressure;Samples;Min_cycle;Max_cycle;Signal;HPM_P1;HPM_P2
2023/01/11 00:00:44;;;;;;;;;;;7.20;99.90;;;;;;5060650;28;20004;-77
2023/01/11 00:03:09;;;;;;;;;;;7.20;99.90;;;;;;5059945;28;19956;-79
2023/01/11 00:05:39;;;;;;;;;;;7.20;99.90;;;;;;5060690;28;19916;-83
2023/01/11 00:08:05;;;;;;;;;;;7.10;99.90;;;;;;5062502;28;19962;-76
2023/01/11 00:10:32;;;;;;;;;;;7.20;99.90;;;;;;5062327;28;19908;-77
2023/01/11 00:12:57;;;;;;;;;;;7.20;99.90;;;;;;5056561;28;19913;-77
2023/01/11 00:15:23;;;;;;;;;;;7.20;99.90;;;;;;5050820;28;19923;-77
2023/01/11 00:17:48;;;;;;;;;;;7.30;99.90;;;;;;5049032;28;19908;-77
2023/01/11 00:20:14;;;;;;;;;;;7.30;99.90;;;;;;5050658;28;19909;-77
2023/01/11 00:22:40;;;;;;;;;;;7.30;99.90;;;;;;5050236;28;19913;-78
2023/01/11 00:25:05;;;;;;;;;;;7.20;99.90;;;;;;5049138;28;20313;-78
2023/01/11 00:27:31;;;;;;;;;;;7.20;99.90;;;;;;5050507;28;19908;-77
2023/01/11 00:29:56;;;;;;;;;;;7.20;99.90;;;;;;5049917;28;19928;-77
2023/01/11 00:32:22;;;;;;;;;;;7.10;99.90;;;;;;5050600;28;19913;-77
2023/01/11 00:34:47;;;;;;;;;;;7.10;99.90;;;;;;5049822;28;19995;-77
2023/01/11 00:37:13;;;;;;;;;;;7.10;99.90;;;;;;5066098;28;19915;-78
2023/01/11 00:39:38;;;;;;;;;;;7.00;99.90;;;;;;5069707;28;19912;-77
2023/01/11 00:50:16;;;;;;;;;;;7.00;99.90;;;;;;5070322;28;19916;-77
2023/01/11 00:52:42;;;;;;;;;;;6.90;99.90;;;;;;5069875;28;19924;-77
2023/01/11 00:55:08;;;;;;;;;;;6.90;99.90;;;;;;5070657;28;19970;-77
2023/01/11 00:57:33;;;;;;;;;;;6.90;99.90;;;;;;5070750;28;20262;-77
2023/01/11 00:59:59;;;;;;;;;;;6.80;99.90;;;;;;5069556;28;19917;-76
2023/01/11 01:02:25;;;;;;;;;;;6.80;99.90;;;;;;5070287;28;19920;-76
2023/01/11 01:04:50;;;;;;;;;;;6.80;99.90;;;;;;5069817;28;19936;-76
2023/01/11 01:07:16;;;;;;;;;;;6.80;99.90;;;;;;5070565;28;19908;-76
2023/01/11 01:09:41;;;;;;;;;;;6.80;99.90;;;;;;5070188;28;19938;-76
2023/01/11 01:12:08;;;;;;;;;;;6.80;99.90;;;;;;5066196;28;19913;-76
2023/01/11 01:14:34;;;;;;;;;;;6.80;99.90;;;;;;5054066;28;19916;-75
2023/01/11 01:17:01;;;;;;;;;;;6.80;99.90;;;;;;5053959;28;19978;-75
2023/01/11 01:19:27;;;;;;;;;;;6.80;99.90;;;;;;5052488;28;19908;-77
2023/01/11 01:21:56;;;;;;;;;;;6.80;99.90;;;;;;5053422;28;20326;-77
2023/01/11 01:24:22;;;;;;;;;;;6.80;99.90;;;;;;5053871;28;19912;-77
2023/01/11 01:26:48;;;;;;;;;;;6.80;99.90;;;;;;5053564;28;20062;-77
2023/01/11 01:29:14;;;;;;;;;;;6.80;99.90;;;;;;5053878;28;19915;-77
2023/01/11 01:31:43;;;;;;;;;;;6.70;99.90;;;;;;5053464;28;19916;-82
2023/01/11 01:34:09;;;;;;;;;;;6.70;99.90;;;;;;5053607;28;19909;-77
2023/01/11 01:36:35;;;;;;;;;;;6.70;99.90;;;;;;5053728;28;19917;-79
2023/01/11 01:39:02;;;;;;;;;;;6.70;99.90;;;;;;5053135;28;19920;-77
2023/01/11 01:41:28;;;;;;;;;;;6.70;99.90;;;;;;5053694;28;19924;-77
2023/01/11 01:43:53;;;;;;;;;;;6.70;99.90;;;;;;5052913;28;20313;-77
2023/01/11 01:46:20;;;;;;;;;;;6.60;99.90;;;;;;5053237;28;19917;-77
2023/01/11 01:48:48;;;;;;;;;;;6.60;99.90;;;;;;5052606;28;19916;-77
2023/01/11 01:51:17;;;;;;;;;;;6.60;99.90;;;;;;5053377;28;19909;-77
2023/01/11 01:53:45;;;;;;;;;;;6.50;99.90;;;;;;5052941;28;19967;-80
2023/01/11 01:56:14;;;;;;;;;;;6.60;99.90;;;;;;5052884;28;19939;-77
2023/01/11 01:58:43;;;;;;;;;;;6.60;99.90;;;;;;5053327;28;19986;-77
2023/01/11 02:03:53;;;;;;;;;;;6.60;99.90;;;;;;5052979;28;19971;-77
2023/01/11 02:06:21;;;;;;;;;;;6.60;99.90;;;;;;5052959;28;19908;-77
2023/01/11 02:08:48;;;;;;;;;;;6.60;99.90;;;;;;5053172;28;19999;-76
2023/01/11 02:11:30;;;;;;;;;;;6.60;99.90;;;;;;5053469;28;20270;-77
2023/01/11 02:14:02;;;;;;;;;;;6.50;99.90;;;;;;5052035;28;19909;-77
2023/01/11 02:16:28;;;;;;;;;;;6.60;99.90;;;;;;5052913;28;19916;-77
2023/01/11 02:18:55;;;;;;;;;;;6.60;99.90;;;;;;5051855;28;19908;-77
2023/01/11 02:21:39;;;;;;;;;;;6.50;99.90;;;;;;5052270;28;19985;-77
2023/01/11 02:24:15;;;;;;;;;;;6.50;99.90;;;;;;5050746;28;19943;-77
2023/01/11 02:26:54;;;;;;;;;;;6.50;99.90;;;;;;5051143;28;19909;-77
2023/01/11 02:29:22;;;;;;;;;;;6.50;99.90;;;;;;5052655;28;20367;-77
2023/01/11 02:31:59;;;;;;;;;;;6.50;99.90;;;;;;5051818;28;19959;-77
2023/01/11 02:34:24;;;;;;;;;;;6.50;99.90;;;;;;5052617;28;19919;-77
2023/01/11 02:36:56;;;;;;;;;;;6.50;99.90;;;;;;5051539;28;20067;-78
2023/01/11 02:39:34;;;;;;;;;;;6.40;99.90;;;;;;5052216;28;19959;-79
2023/01/11 02:45:12;;;;;;;;;;;6.50;99.90;;;;;;5051714;28;19923;-76
2023/01/11 02:47:38;;;;;;;;;;;6.50;99.90;;;;;;5049802;28;20016;-77
2023/01/11 02:50:07;;;;;;;;;;;6.50;99.90;;;;;;5051138;28;19935;-76
2023/01/11 02:52:41;;;;;;;;;;;6.60;99.90;;;;;;5051679;28;19936;-76
2023/01/11 02:55:08;;;;;;;;;;;6.60;99.90;;;;;;5051238;28;19916;-77
2023/01/11 02:57:34;;;;;;;;;;;6.60;99.90;;;;;;5051719;28;19913;-76
2023/01/11 03:00:00;;;;;;;;;;;6.60;99.90;;;;;;5056205;28;19948;-75
2023/01/11 03:02:26;;;;;;;;;;;6.60;99.90;;;;;;5071608;28;19920;-76
2023/01/11 03:04:51;;;;;;;;;;;6.70;99.90;;;;;;5071257;28;19912;-76
2023/01/11 03:07:35;;;;;;;;;;;6.70;99.90;;;;;;5071425;28;19908;-76
2023/01/11 03:10:20;;;;;;;;;;;6.70;99.90;;;;;;5071127;28;19912;-77
2023/01/11 03:12:54;;;;;;;;;;;6.70;99.90;;;;;;5071023;28;20423;-82
2023/01/11 03:15:38;;;;;;;;;;;6.70;99.90;;;;;;5071499;28;19909;-76
2023/01/11 03:18:04;;;;;;;;;;;6.70;99.90;;;;;;5070878;28;19935;-76
2023/01/11 03:20:52;;;;;;;;;;;6.70;99.90;;;;;;5071298;28;19950;-78
2023/01/11 03:23:22;;;;;;;;;;;6.60;99.90;;;;;;5042628;28;19912;-76
2023/01/11 03:25:54;;;;;;;;;;;6.50;99.90;;;;;;5070821;28;20380;-82
2023/01/11 03:28:26;;;;;;;;;;;6.50;99.90;;;;;;5071598;28;19908;-77
2023/01/11 03:30:59;;;;;;;;;;;6.50;99.90;;;;;;5070302;28;20199;-76
2023/01/11 03:33:51;;;;;;;;;;;6.50;99.90;;;;;;5071579;28;19954;-76
2023/01/11 03:36:26;;;;;;;;;;;6.50;99.90;;;;;;5060514;28;20334;-77
2023/01/11 03:38:59;;;;;;;;;;;6.50;99.90;;;;;;5050800;28;19909;-77
2023/01/11 03:41:27;;;;;;;;;;;6.50;99.90;;;;;;5051386;28;19920;-77
2023/01/11 03:43:54;;;;;;;;;;;6.50;99.90;;;;;;5050282;28;19917;-77
2023/01/11 03:46:22;;;;;;;;;;;6.50;99.90;;;;;;5051116;28;20362;-77
2023/01/11 03:48:53;;;;;;;;;;;6.50;99.90;;;;;;5050835;28;19932;-81
2023/01/11 03:51:21;;;;;;;;;;;6.50;99.90;;;;;;5050998;28;20326;-76
2023/01/11 03:53:49;;;;;;;;;;;6.50;99.90;;;;;;5051194;28;19927;-77
2023/01/11 03:56:15;;;;;;;;;;;6.40;99.90;;;;;;5050738;28;19916;-76
2023/01/11 03:58:41;;;;;;;;;;;6.40;99.90;;;;;;5049501;28;19909;-76
2023/01/11 04:01:07;;;;;;;;;;;6.30;99.90;;;;;;5050603;28;19919;-79
2023/01/11 04:03:33;;;;;;;;;;;6.30;99.90;;;;;;5051294;28;19916;-77
2023/01/11 04:05:59;;;;;;;;;;;6.30;99.90;;;;;;5050302;28;19920;-78
2023/01/11 04:08:25;;;;;;;;;;;6.30;99.90;;;;;;5051045;28;20238;-76
2023/01/11 04:10:51;;;;;;;;;;;6.30;99.90;;;;;;5050502;28;19908;-81
2023/01/11 04:13:16;;;;;;;;;;;6.30;99.90;;;;;;5064889;28;20221;-77
2023/01/11 04:15:42;;;;;;;;;;;6.40;99.90;;;;;;5070894;28;19977;-77
2023/01/11 04:18:07;;;;;;;;;;;6.30;99.90;;;;;;5070383;28;19909;-78
2023/01/11 04:20:34;;;;;;;;;;;6.40;99.90;;;;;;5070442;28;19917;-77
2023/01/11 04:22:59;;;;;;;;;;;6.40;99.90;;;;;;5070604;28;19951;-77
2023/01/11 04:25:25;;;;;;;;;;;6.40;99.90;;;;;;5069539;28;20329;-78
2023/01/11 04:27:50;;;;;;;;;;;6.30;99.90;;;;;;5070873;28;19931;-82
2023/01/11 04:30:16;;;;;;;;;;;6.40;99.90;;;;;;5070511;28;20234;-78
2023/01/11 04:32:42;;;;;;;;;;;6.50;99.90;;;;;;5070720;28;20066;-77
2023/01/11 04:35:07;;;;;;;;;;;6.50;99.90;;;;;;5069927;28;20332;-76
2023/01/11 04:37:33;;;;;;;;;;;6.40;99.90;;;;;;5070513;28;19916;-76
2023/01/11 04:39:58;;;;;;;;;;;6.40;99.90;;;;;;5070284;28;19920;-78
2023/01/11 04:42:24;;;;;;;;;;;6.40;99.90;;;;;;5070282;28;20345;-77
2023/01/11 04:44:50;;;;;;;;;;;6.50;99.90;;;;;;5070488;28;19991;-77
2023/01/11 04:47:17;;;;;;;;;;;6.40;99.90;;;;;;5072191;28;19913;-76
2023/01/11 04:49:42;;;;;;;;;;;6.40;99.90;;;;;;5073801;28;20399;-75
2023/01/11 04:52:12;;;;;;;;;;;6.30;99.90;;;;;;5072176;28;19924;-76
2023/01/11 04:54:38;;;;;;;;;;;6.40;99.90;;;;;;5072895;28;19969;-76
2023/01/11 04:57:04;;;;;;;;;;;6.40;99.90;;;;;;5073398;28;19959;-77
2023/01/11 04:59:29;;;;;;;;;;;6.40;99.90;;;;;;5072902;28;20330;-76
2023/01/11 05:01:55;;;;;;;;;;;6.40;99.90;;;;;;5073516;28;20018;-82
2023/01/11 05:04:20;;;;;;;;;;;6.40;99.90;;;;;;5074157;28;19999;-76
2023/01/11 05:06:46;;;;;;;;;;;6.30;99.90;;;;;;5074051;28;20354;-77
2023/01/11 05:09:13;;;;;;;;;;;6.30;99.90;;;;;;5073592;28;20368;-77
2023/01/11 05:11:38;;;;;;;;;;;6.40;99.90;;;;;;5074093;28;20019;-77
2023/01/11 05:14:04;;;;;;;;;;;6.40;99.90;;;;;;5073428;28;19951;-76
2023/01/11 05:16:29;;;;;;;;;;;6.40;99.90;;;;;;5054722;28;19913;-77
2023/01/11 05:18:56;;;;;;;;;;;6.40;99.90;;;;;;5053720;28;20325;-82
2023/01/11 05:21:25;;;;;;;;;;;6.40;99.90;;;;;;5052602;28;20478;-76
2023/01/11 05:23:51;;;;;;;;;;;6.50;99.90;;;;;;5057278;28;19924;-77
2023/01/11 05:26:18;;;;;;;;;;;6.50;99.90;;;;;;5073571;28;20025;-76
2023/01/11 05:28:44;;;;;;;;;;;6.50;99.90;;;;;;5073680;28;19908;-76
2023/01/11 05:31:10;;;;;;;;;;;6.50;99.90;;;;;;5072987;28;19908;-76
2023/01/11 05:33:36;;;;;;;;;;;6.60;99.90;;;;;;5073571;28;19909;-76
2023/01/11 05:36:05;;;;;;;;;;;6.50;99.90;;;;;;5072990;28;19916;-77
2023/01/11 05:38:31;;;;;;;;;;;6.50;99.90;;;;;;5073395;28;19909;-76
2023/01/11 05:40:58;;;;;;;;;;;6.50;99.90;;;;;;5073048;28;19923;-82
2023/01/11 05:43:24;;;;;;;;;;;6.60;99.90;;;;;;5073758;28;19943;-77
2023/01/11 05:45:50;;;;;;;;;;;6.70;99.90;;;;;;5073485;28;19980;-77
2023/01/11 05:48:15;;;;;;;;;;;6.80;99.90;;;;;;5072457;28;20459;-78
2023/01/11 05:50:41;;;;;;;;;;;6.80;99.90;;;;;;5073193;28;19908;-78
2023/01/11 05:53:07;;;;;;;;;;;6.80;99.90;;;;;;5072623;28;20278;-78
2023/01/11 05:55:32;;;;;;;;;;;6.90;99.90;;;;;;5073490;28;19916;-78
2023/01/11 05:57:58;;;;;;;;;;;6.90;99.90;;;;;;5072903;28;19995;-84
2023/01/11 06:00:23;;;;;;;;;;;6.90;99.90;;;;;;5072779;28;20001;-78
2023/01/11 06:02:49;;;;;;;;;;;6.90;99.90;;;;;;5073161;28;19931;-78
2023/01/11 06:05:15;;;;;;;;;;;7.00;99.90;;;;;;5071060;28;20338;-77
2023/01/11 06:07:40;;;;;;;;;;;7.00;99.90;;;;;;5073150;28;19908;-77
2023/01/11 06:10:07;;;;;;;;;;;7.00;99.90;;;;;;5072524;28;20017;-76
2023/01/11 06:12:32;;;;;;;;;;;7.00;99.90;;;;;;5072611;28;20268;-76
2023/01/11 06:14:58;;;;;;;;;;;7.10;99.90;;;;;;5066197;28;19970;-83
2023/01/11 06:17:23;;;;;;;;;;;7.10;99.90;;;;;;5052443;28;20313;-77
2023/01/11 06:19:49;;;;;;;;;;;7.10;99.90;;;;;;5052822;28;19931;-77
2023/01/11 06:22:15;;;;;;;;;;;7.20;99.90;;;;;;5052114;28;19921;-77
2023/01/11 06:24:40;;;;;;;;;;;7.20;99.90;;;;;;5052425;28;19948;-77
2023/01/11 06:27:06;;;;;;;;;;;7.20;99.90;;;;;;5051758;28;19924;-77
2023/01/11 06:29:31;;;;;;;;;;;7.20;99.90;;;;;;5052449;28;19916;-76
2023/01/11 06:31:57;;;;;;;;;;;7.10;99.90;;;;;;5052528;28;20306;-76
2023/01/11 06:34:23;;;;;;;;;;;7.10;99.90;;;;;;5051797;28;20280;-77
2023/01/11 06:36:48;;;;;;;;;;;7.00;99.90;;;;;;5066249;28;19908;-76
2023/01/11 06:39:14;;;;;;;;;;;7.00;99.90;;;;;;5071386;28;20368;-78
2023/01/11 06:41:39;;;;;;;;;;;6.90;99.90;;;;;;5071813;28;20295;-76
2023/01/11 06:44:05;;;;;;;;;;;6.80;99.90;;;;;;5071984;28;19908;-77
2023/01/11 06:46:30;;;;;;;;;;;6.80;99.90;;;;;;5072162;28;19908;-76
2023/01/11 06:48:56;;;;;;;;;;;6.80;99.90;;;;;;5072128;28;20366;-77
2023/01/11 06:51:21;;;;;;;;;;;6.80;99.90;;;;;;5071263;28;19916;-76
2023/01/11 06:53:47;;;;;;;;;;;6.90;99.90;;;;;;5072501;28;20367;-77
2023/01/11 06:56:14;;;;;;;;;;;6.80;99.90;;;;;;5071650;28;19917;-77
2023/01/11 06:58:39;;;;;;;;;;;6.90;99.90;;;;;;5072421;28;19951;-76
2023/01/11 07:01:05;;;;;;;;;;;6.90;99.90;;;;;;5072154;28;19955;-76
2023/01/11 07:03:31;;;;;;;;;;;6.90;99.90;;;;;;5071684;28;19916;-76
2023/01/11 07:05:57;;;;;;;;;;;6.80;99.90;;;;;;5071251;28;19909;-76
2023/01/11 07:08:25;;;;;;;;;;;6.90;99.90;;;;;;5070746;28;19939;-77
2023/01/11 07:10:51;;;;;;;;;;;6.90;99.90;;;;;;5071536;28;19908;-76
2023/01/11 07:13:17;;;;;;;;;;;6.90;99.90;;;;;;5070010;28;19908;-77
2023/01/11 07:15:43;;;;;;;;;;;6.90;99.90;;;;;;5071310;28;19939;-76
2023/01/11 07:18:10;;;;;;;;;;;6.90;99.90;;;;;;5070985;28;19915;-77
2023/01/11 07:20:36;;;;;;;;;;;6.90;99.90;;;;;;5072213;28;19908;-76
2023/01/11 07:23:02;;;;;;;;;;;6.90;99.90;;;;;;5071405;28;20368;-76
2023/01/11 07:25:28;;;;;;;;;;;6.90;99.90;;;;;;5070779;28;19948;-76
2023/01/11 07:27:57;;;;;;;;;;;6.90;99.90;;;;;;5070994;28;19908;-76
2023/01/11 07:30:23;;;;;;;;;;;6.90;99.90;;;;;;5070432;28;19922;-77
2023/01/11 07:32:49;;;;;;;;;;;7.00;99.90;;;;;;5069688;28;19908;-76
2023/01/11 07:35:14;;;;;;;;;;;7.00;99.90;;;;;;5070206;28;20346;-76
2023/01/11 07:37:40;;;;;;;;;;;7.10;99.90;;;;;;5070588;28;19962;-76
2023/01/11 07:40:06;;;;;;;;;;;7.20;99.90;;;;;;5070325;28;20321;-82
2023/01/11 07:45:16;;;;;;;;;;;7.20;99.90;;;;;;5070317;28;19974;-78
2023/01/11 07:47:42;;;;;;;;;;;7.20;99.90;;;;;;5067629;28;19924;-75
2023/01/11 07:50:07;;;;;;;;;;;7.20;99.90;;;;;;5050471;28;19912;-77
2023/01/11 07:52:33;;;;;;;;;;;7.20;99.90;;;;;;5051132;28;20270;-76
2023/01/11 07:55:01;;;;;;;;;;;7.20;99.90;;;;;;5050780;28;20363;-76
2023/01/11 07:57:29;;;;;;;;;;;7.20;99.90;;;;;;5050226;28;20001;-75
2023/01/11 07:59:55;;;;;;;;;;;7.20;99.90;;;;;;5049474;28;19927;-77
2023/01/11 08:02:21;;;;;;;;;;;7.20;99.90;;;;;;5050313;28;20008;-77
2023/01/11 08:04:46;;;;;;;;;;;7.10;99.90;;;;;;5050277;28;19909;-76
2023/01/11 08:07:12;;;;;;;;;;;7.10;99.90;;;;;;5048724;28;19909;-76
2023/01/11 08:09:37;;;;;;;;;;;7.10;99.90;;;;;;5050857;28;19935;-76
2023/01/11 08:14:47;;;;;;;;;;;7.10;99.90;;;;;;5050366;28;19916;-77
2023/01/11 08:17:14;;;;;;;;;;;7.10;99.90;;;;;;5058344;28;19916;-76
2023/01/11 08:19:40;;;;;;;;;;;7.10;99.90;;;;;;5071267;28;20040;-76
2023/01/11 08:22:06;;;;;;;;;;;7.10;99.90;;;;;;5074155;28;19952;-77
2023/01/11 08:24:33;;;;;;;;;;;7.10;99.90;;;;;;5072594;28;20320;-77
2023/01/11 08:26:59;;;;;;;;;;;7.10;99.90;;;;;;5075048;28;19915;-76
2023/01/11 08:29:24;;;;;;;;;;;7.10;99.90;;;;;;5073836;28;19909;-76
2023/01/11 08:31:50;;;;;;;;;;;7.10;99.90;;;;;;5074197;28;19909;-76
2023/01/11 08:34:16;;;;;;;;;;;7.00;99.90;;;;;;5073930;28;20000;-77
2023/01/11 08:36:41;;;;;;;;;;;7.10;99.90;;;;;;5074026;28;19913;-77
2023/01/11 08:39:07;;;;;;;;;;;7.00;99.90;;;;;;5074399;28;20029;-79
2023/01/11 08:41:33;;;;;;;;;;;7.00;99.90;;;;;;5073534;28;20369;-76
2023/01/11 08:43:58;;;;;;;;;;;6.90;99.90;;;;;;5074347;28;20401;-76
2023/01/11 08:46:24;;;;;;;;;;;6.90;99.90;;;;;;5073586;28;20227;-77
2023/01/11 08:48:52;;;;;;;;;;;6.90;99.90;;;;;;5074134;28;19908;-77
2023/01/11 08:51:18;;;;;;;;;;;6.90;99.90;;;;;;5073280;28;19915;-78
2023/01/11 08:53:44;;;;;;;;;;;6.90;99.90;;;;;;5074111;28;19920;-78
2023/01/11 08:56:09;;;;;;;;;;;6.90;99.90;;;;;;5073549;28;20042;-84
2023/01/11 08:58:35;;;;;;;;;;;6.90;99.90;;;;;;5062347;28;20284;-79
2023/01/11 09:01:02;;;;;;;;;;;6.90;99.90;;;;;;5063575;28;19927;-79
2023/01/11 09:03:28;;;;;;;;;;;6.80;99.90;;;;;;5065634;28;19909;-80
2023/01/11 09:05:55;;;;;;;;;;;6.80;99.90;;;;;;5074092;28;19915;-81
2023/01/11 09:08:21;;;;;;;;;;;6.80;99.90;;;;;;5071649;28;19958;-82
2023/01/11 09:10:47;;;;;;;;;;;6.70;99.90;;;;;;5073644;28;19908;-81
2023/01/11 09:13:12;;;;;;;;;;;6.70;99.90;;;;;;5065297;28;20401;-85
2023/01/11 09:15:38;;;;;;;;;;;6.70;99.90;;;;;;5062699;28;19977;-80
2023/01/11 09:18:04;;;;;;;;;;;6.70;99.90;;;;;;5068160;28;19912;-82
2023/01/11 09:20:29;;;;;;;;;;;6.70;99.90;;;;;;5060845;28;19916;-82
2023/01/11 09:22:55;;;;;;;;;;;6.70;99.90;;;;;;5061916;28;19908;-82
2023/01/11 09:25:21;;;;;;;;;;;6.70;99.90;;;;;;5062670;28;19913;-84
2023/01/11 09:27:47;;;;;;;;;;;6.60;99.90;;;;;;5053821;28;19915;-82
2023/01/11 09:30:14;;;;;;;;;;;6.60;99.90;;;;;;5052618;28;19917;-85
2023/01/11 09:32:40;;;;;;;;;;;6.70;99.90;;;;;;5052550;28;20019;-80
2023/01/11 09:35:06;;;;;;;;;;;6.70;99.90;;;;;;5053402;28;19940;-82
2023/01/11 09:37:31;;;;;;;;;;;6.70;99.90;;;;;;5070383;28;19913;-82
2023/01/11 09:39:58;;;;;;;;;;;6.80;99.90;;;;;;5068782;28;19982;-82
2023/01/11 09:42:34;;;;;;;;;;;6.80;99.90;;;;;;5061304;28;19932;-82
2023/01/11 09:45:09;;;;;;;;;;;6.80;99.90;;;;;;5061429;28;19968;-80
2023/01/11 09:47:39;;;;;;;;;;;6.90;99.90;;;;;;5067717;28;19913;-81
2023/01/11 09:50:10;;;;;;;;;;;6.90;99.90;;;;;;5061060;28;19936;-81
2023/01/11 09:52:39;;;;;;;;;;;7.00;99.90;;;;;;5057204;28;19925;-79
2023/01/11 09:55:09;;;;;;;;;;;7.00;99.90;;;;;;5061229;28;19958;-79
2023/01/11 09:57:53;;;;;;;;;;;7.00;99.90;;;;;;5063131;28;19908;-79
2023/01/11 10:00:30;;;;;;;;;;;7.10;99.90;;;;;;5057956;28;19992;-79
2023/01/11 10:03:18;;;;;;;;;;;7.10;99.90;;;;;;5052878;28;19917;-79
2023/01/11 10:05:50;;;;;;;;;;;7.20;99.90;;;;;;5053073;28;19909;-79
2023/01/11 10:08:30;;;;;;;;;;;7.20;99.90;;;;;;5058834;28;19990;-85
2023/01/11 10:11:11;;;;;;;;;;;7.20;99.90;;;;;;5061645;28;19908;-79
2023/01/11 10:13:52;;;;;;;;;;;7.20;99.90;;;;;;5070611;28;19912;-80
2023/01/11 10:16:20;;;;;;;;;;;7.20;99.90;;;;;;5071896;28;19915;-81
2023/01/11 10:19:05;;;;;;;;;;;7.30;99.90;;;;;;5072605;28;19909;-82
2023/01/11 10:21:33;;;;;;;;;;;7.20;99.90;;;;;;5072013;28;19916;-82
2023/01/11 10:24:18;;;;;;;;;;;7.20;99.90;;;;;;5071121;28;19915;-81
2023/01/11 10:26:43;;;;;;;;;;;7.20;99.90;;;;;;5072389;28;20230;-81
2023/01/11 10:43:16;;;;;;;;;;;7.10;99.90;;;;;;5063574;28;19923;-80
2023/01/11 10:45:48;;;;;;;;;;;7.10;99.90;;;;;;5054635;28;19913;-79
2023/01/11 10:48:26;;;;;;;;;;;7.10;99.90;;;;;;5052852;28;19909;-79
2023/01/11 10:51:10;;;;;;;;;;;7.00;99.90;;;;;;5053172;28;20362;-79
2023/01/11 10:53:39;;;;;;;;;;;6.90;99.90;;;;;;5052518;28;19929;-80
2023/01/11 10:56:14;;;;;;;;;;;6.90;99.90;;;;;;5052976;28;19908;-79
2023/01/11 10:58:52;;;;;;;;;;;6.80;99.90;;;;;;5052334;28;20207;-80
2023/01/11 11:01:27;;;;;;;;;;;6.80;99.90;;;;;;5052565;28;19916;-86
2023/01/11 11:04:02;;;;;;;;;;;6.80;99.90;;;;;;5053131;28;19913;-80
2023/01/11 11:06:28;;;;;;;;;;;6.70;99.90;;;;;;5052743;28;19917;-81
2023/01/11 11:08:54;;;;;;;;;;;6.70;99.90;;;;;;5052914;28;20003;-82
2023/01/11 11:11:23;;;;;;;;;;;6.70;99.90;;;;;;5052368;28;19916;-88
2023/01/11 11:13:59;;;;;;;;;;;6.60;99.90;;;;;;5053046;28;20008;-81
2023/01/11 11:16:34;;;;;;;;;;;6.60;99.90;;;;;;5052579;28;19909;-80
2023/01/11 11:19:00;;;;;;;;;;;6.50;99.90;;;;;;5052573;28;19909;-80
2023/01/11 11:21:36;;;;;;;;;;;6.50;99.90;;;;;;5052098;28;19917;-80
2023/01/11 11:24:04;;;;;;;;;;;6.50;99.90;;;;;;5052463;28;20431;-80
2023/01/11 11:26:36;;;;;;;;;;;6.50;99.90;;;;;;5052492;28;19916;-79
2023/01/11 11:29:03;;;;;;;;;;;6.50;99.90;;;;;;5052257;28;19948;-80
2023/01/11 11:31:30;;;;;;;;;;;6.40;99.90;;;;;;5051963;28;19909;-80
2023/01/11 11:33:55;;;;;;;;;;;6.30;99.90;;;;;;5052435;28;19916;-79
2023/01/11 11:36:23;;;;;;;;;;;6.40;99.90;;;;;;5051434;28;19912;-86
2023/01/11 11:39:07;;;;;;;;;;;6.40;99.90;;;;;;5051789;28;19909;-79
2023/01/11 11:41:43;;;;;;;;;;;6.50;99.90;;;;;;5051499;28;19944;-79
2023/01/11 11:44:20;;;;;;;;;;;6.50;99.90;;;;;;5052283;28;19909;-79
2023/01/11 11:47:15;;;;;;;;;;;6.60;99.90;;;;;;5051736;28;19912;-77
2023/01/11 11:49:41;;;;;;;;;;;6.60;99.90;;;;;;5046683;28;19995;-79
2023/01/11 11:52:11;;;;;;;;;;;6.70;99.90;;;;;;5051486;28;19920;-78
2023/01/11 11:54:40;;;;;;;;;;;6.70;99.90;;;;;;5051241;28;20289;-78
2023/01/11 11:57:19;;;;;;;;;;;6.70;99.90;;;;;;5053519;28;19916;-78
2023/01/11 11:59:46;;;;;;;;;;;6.70;99.90;;;;;;5070002;28;19948;-78
2023/01/11 12:02:23;;;;;;;;;;;6.80;99.90;;;;;;5070613;28;19999;-79
2023/01/11 12:04:49;;;;;;;;;;;6.90;99.90;;;;;;5071120;28;19940;-79
2023/01/11 12:07:17;;;;;;;;;;;7.00;99.90;;;;;;5071144;28;19913;-79
2023/01/11 12:09:49;;;;;;;;;;;7.10;99.90;;;;;;5070780;28;19920;-79
2023/01/11 12:12:19;;;;;;;;;;;7.20;99.90;;;;;;5070183;28;19959;-79
2023/01/11 12:15:04;;;;;;;;;;;7.20;99.90;;;;;;5071171;28;19915;-78
2023/01/11 12:17:30;;;;;;;;;;;7.20;99.90;;;;;;5069803;28;19915;-78
2023/01/11 12:19:56;;;;;;;;;;;7.30;99.90;;;;;;5071684;28;19909;-77
2023/01/11 12:22:22;;;;;;;;;;;7.30;99.90;;;;;;5071778;28;20323;-80
2023/01/11 12:25:08;;;;;;;;;;;7.30;99.90;;;;;;5071800;28;20342;-77
2023/01/11 12:27:45;;;;;;;;;;;7.30;99.90;;;;;;5060815;28;19935;-79
2023/01/11 12:30:20;;;;;;;;;;;7.30;99.90;;;;;;5072315;28;19995;-80
2023/01/11 12:33:01;;;;;;;;;;;7.20;99.90;;;;;;5071199;28;19909;-79
2023/01/11 12:35:37;;;;;;;;;;;7.10;99.90;;;;;;5059288;28;20373;-78
2023/01/11 12:38:26;;;;;;;;;;;7.10;99.90;;;;;;5072892;28;19912;-79
2023/01/11 12:41:06;;;;;;;;;;;7.10;99.90;;;;;;5062609;28;19924;-81
2023/01/11 12:43:36;;;;;;;;;;;7.00;99.90;;;;;;5070042;28;20464;-78
2023/01/11 12:46:06;;;;;;;;;;;7.00;99.90;;;;;;5071455;28;19909;-79
2023/01/11 12:48:43;;;;;;;;;;;7.00;99.90;;;;;;5070875;28;19909;-79
2023/01/11 12:51:12;;;;;;;;;;;7.00;99.90;;;;;;5071113;28;20354;-77
2023/01/11 12:53:49;;;;;;;;;;;7.00;99.90;;;;;;5070445;28;19943;-77
2023/01/11 12:56:23;;;;;;;;;;;7.00;99.90;;;;;;5070493;28;19920;-78
2023/01/11 12:58:51;;;;;;;;;;;7.00;99.90;;;;;;5070374;28;19909;-78
2023/01/11 13:01:20;;;;;;;;;;;7.00;99.90;;;;;;5069869;28;19923;-78
2023/01/11 13:04:01;;;;;;;;;;;7.00;99.90;;;;;;5065614;28;19919;-77
2023/01/11 13:06:52;;;;;;;;;;;7.10;99.90;;;;;;5059489;28;20031;-83
2023/01/11 13:09:33;;;;;;;;;;;7.10;99.90;;;;;;5034426;28;20022;-77
2023/01/11 13:12:13;;;;;;;;;;;7.10;99.90;;;;;;5053600;28;19913;-77
2023/01/11 13:14:45;;;;;;;;;;;7.20;99.90;;;;;;5053866;28;19995;-76
2023/01/11 13:17:23;;;;;;;;;;;7.20;99.90;;;;;;5061715;28;19920;-77
2023/01/11 13:19:51;;;;;;;;;;;7.30;99.90;;;;;;5061842;28;20250;-77
2023/01/11 13:22:21;;;;;;;;;;;7.30;99.90;;;;;;5065045;28;20368;-78
2023/01/11 13:24:49;;;;;;;;;;;7.30;99.90;;;;;;5061811;28;19908;-77
2023/01/11 13:27:17;;;;;;;;;;;7.30;99.90;;;;;;5064082;28;19916;-78
2023/01/11 13:29:44;;;;;;;;;;;7.30;99.90;;;;;;5052269;28;19951;-77
2023/01/11 13:32:12;;;;;;;;;;;7.30;99.90;;;;;;5054119;28;20378;-77
2023/01/11 13:34:41;;;;;;;;;;;7.20;99.90;;;;;;5053544;28;19951;-76
2023/01/11 13:37:11;;;;;;;;;;;7.30;99.90;;;;;;5061069;28;19989;-77
2023/01/11 13:39:37;;;;;;;;;;;7.30;99.90;;;;;;5062941;28;19915;-76
2023/01/11 13:42:22;;;;;;;;;;;7.40;99.90;;;;;;5062948;28;20320;-77
2023/01/11 13:45:00;;;;;;;;;;;7.40;99.90;;;;;;5052641;28;20857;-76
2023/01/11 13:47:32;;;;;;;;;;;7.40;99.90;;;;;;5061383;28;19909;-85
2023/01/11 13:50:12;;;;;;;;;;;7.40;99.90;;;;;;5066507;28;19909;-75
2023/01/11 13:52:42;;;;;;;;;;;7.50;99.90;;;;;;5064905;28;20451;-76
2023/01/11 13:55:27;;;;;;;;;;;7.50;99.90;;;;;;5059648;28;19913;-76
2023/01/11 13:58:04;;;;;;;;;;;7.60;99.90;;;;;;5056592;28;19994;-76
2023/01/11 14:00:48;;;;;;;;;;;7.60;99.90;;;;;;5061350;28;20251;-76
2023/01/11 14:03:22;;;;;;;;;;;7.50;99.90;;;;;;5061289;28;19916;-78
2023/01/11 14:05:48;;;;;;;;;;;7.50;99.90;;;;;;5046011;28;19967;-78
2023/01/11 14:08:32;;;;;;;;;;;7.50;99.90;;;;;;5060676;28;19936;-76
2023/01/11 14:11:12;;;;;;;;;;;7.50;99.90;;;;;;5061470;28;20349;-77
2023/01/11 14:16:24;;;;;;;;;;;7.50;99.90;;;;;;5059397;28;19955;-76
2023/01/11 14:18:56;;;;;;;;;;;7.50;99.90;;;;;;5061385;28;20275;-75
2023/01/11 14:21:26;;;;;;;;;;;7.50;99.90;;;;;;5061733;28;20282;-77
2023/01/11 14:23:53;;;;;;;;;;;7.50;99.90;;;;;;5057139;28;19913;-77
2023/01/11 14:26:33;;;;;;;;;;;7.50;99.90;;;;;;5057466;28;20273;-77
2023/01/11 14:29:04;;;;;;;;;;;7.50;99.90;;;;;;5060044;28;20242;-77
2023/01/11 14:31:49;;;;;;;;;;;7.40;99.90;;;;;;5055006;28;19913;-78
2023/01/11 14:34:27;;;;;;;;;;;7.50;99.90;;;;;;5052186;28;19976;-76
2023/01/11 14:37:11;;;;;;;;;;;7.50;99.90;;;;;;5051780;28;20051;-77
2023/01/11 14:39:53;;;;;;;;;;;7.50;99.90;;;;;;5050330;28;20011;-77
2023/01/11 14:42:45;;;;;;;;;;;7.50;99.90;;;;;;5052000;28;20317;-77
2023/01/11 14:45:20;;;;;;;;;;;7.50;99.90;;;;;;5051030;28;19932;-77
2023/01/11 14:47:51;;;;;;;;;;;7.50;99.90;;;;;;5051449;28;19908;-76
2023/01/11 14:50:25;;;;;;;;;;;7.40;99.90;;;;;;5052190;28;20270;-76
2023/01/11 14:52:51;;;;;;;;;;;7.40;99.90;;;;;;5053196;28;20408;-78
2023/01/11 14:55:22;;;;;;;;;;;7.40;99.90;;;;;;5071788;28;20006;-77
2023/01/11 14:57:53;;;;;;;;;;;7.30;99.90;;;;;;5071300;28;19960;-77
2023/01/11 15:00:19;;;;;;;;;;;7.30;99.90;;;;;;5071268;28;19912;-78
2023/01/11 15:03:05;;;;;;;;;;;7.40;99.90;;;;;;5071038;28;19927;-77
2023/01/11 15:05:30;;;;;;;;;;;7.40;99.90;;;;;;5060004;28;20325;-85
2023/01/11 15:08:11;;;;;;;;;;;7.40;99.90;;;;;;5070441;28;19912;-78
2023/01/11 15:10:38;;;;;;;;;;;7.40;99.90;;;;;;5070925;28;20346;-77
2023/01/11 15:13:05;;;;;;;;;;;7.40;99.90;;;;;;5071474;28;19915;-77
2023/01/11 15:18:17;;;;;;;;;;;7.40;99.90;;;;;;5071225;28;19916;-77
2023/01/11 15:20:54;;;;;;;;;;;7.40;99.90;;;;;;5071004;28;19991;-77
2023/01/11 15:23:20;;;;;;;;;;;7.50;99.90;;;;;;5071447;28;19909;-78